map of URY home
URY - Airport
Location
City:  Guriat, Saudi Arabia
Near (Alt.):Gurayat, Qurayyat
Name:Guriat Airport
ICAO:OEGT
IATA:URY

Details
Type:Airport (Aerodrome, Airfield)
Use:Public/Civil, International (customs port of entry)
Latitude:3124'43"N (31.411944)
Longitude:3716'46"E (37.279444)
Elevation:1684 ft (513 m)
Variation:4.69E (WMM2015 magnetic declination)
0.08 annual change
Runways:1
Longest:10007 × 148 ft (3050 × 45 m), paved

Time
Time Zone:UTC+3
Local Time:

Weather
METAR:OEGT 190400Z 00000KT 9999 FEW040 11/07 Q1018 NOSIG

Related Locations
Nearby:
Farthest:RVV: 11834 mi / 19044 km
Raivavae, Tubuai Islands, Austral Islands, PF

Find:

   beyond  
but within

Other Information
Maps:
NOTAMs:
Links:
Sources:

  
  • flag of Saudi Arabia
  

Sectional Chart

Flight Planning
at skyvector.com

Satellite Image

Google Maps Satellite view

 

Copyright © 2004-2018 Karl L. Swartz. All rights reserved.
The Great Circle Mapper name and logo are trademarks of the Great Circle Mapper.
All other trademarks mentioned herein belong to their respective owners.
Please see credits for attibutions and further copyright information.

  Follow gcmap on Facebook Follow gcmap on Twitter Follow gcmap on Google+ GCmap on LinkedIn

hCard Microformat

Geo Microformat